Time;durP1;ratioP1;P1;durP2;ratioP2;P2;SDS_P1;SDS_P2;PMS_P1;PMS_P2;Temp;Humidity;BMP_temperature;BMP_pressure;BME280_temperature;BME280_humidity;BME280_pressure;Samples;Min_cycle;Max_cycle;Signal;HPM_P1;HPM_P2
2022/03/30 00:00:13;;;;;;;34.00;12.60;;;;;;;5.71;77.68;98491.94;25069;1313;3026424;-64
2022/03/30 00:02:43;;;;;;;33.10;10.70;;;;;;;5.60;78.76;98489.79;25118;1313;3048471;-61
2022/03/30 00:05:12;;;;;;;23.90;10.80;;;;;;;5.71;78.85;98487.26;25044;1315;3026818;-62
2022/03/30 00:07:55;;;;;;;22.10;9.70;;;;;;;5.87;78.12;98476.05;25069;1315;3070302;-63
2022/03/30 00:10:24;;;;;;;26.30;9.30;;;;;;;5.84;78.22;98485.83;25054;1315;3049582;-65
2022/03/30 00:12:56;;;;;;;28.90;11.30;;;;;;;5.63;79.09;98484.04;25097;1313;3026549;-61
2022/03/30 00:15:25;;;;;;;28.30;12.30;;;;;;;5.47;79.65;98487.85;25120;1316;3026994;-62
2022/03/30 00:17:54;;;;;;;23.10;10.00;;;;;;;5.37;80.70;98489.12;25070;1313;3026472;-60
2022/03/30 00:20:23;;;;;;;22.60;10.20;;;;;;;5.84;79.51;98488.06;25111;1313;3055177;-61
2022/03/30 00:23:12;;;;;;;26.60;10.90;;;;;;;6.00;78.31;98481.77;25051;1313;3052811;-60
2022/03/30 00:25:42;;;;;;;23.50;10.70;;;;;;;5.86;78.84;98479.41;25108;1313;3027968;-62
2022/03/30 00:28:12;;;;;;;29.80;12.20;;;;;;;5.76;78.88;98477.96;25039;1315;3026948;-64
2022/03/30 00:30:44;;;;;;;25.30;12.10;;;;;;;5.44;80.19;98475.34;25086;1313;3027209;-63
2022/03/30 00:33:13;;;;;;;30.50;11.10;;;;;;;5.38;81.17;98474.30;25072;1313;3026382;-63
2022/03/30 00:35:42;;;;;;;20.60;10.20;;;;;;;5.73;80.23;98474.23;25076;1316;3052275;-62
2022/03/30 00:38:11;;;;;;;25.40;12.00;;;;;;;5.94;79.04;98470.46;25129;1313;3028906;-63
2022/03/30 00:40:41;;;;;;;29.30;12.30;;;;;;;5.72;79.72;98468.58;25070;1316;3058438;-63
2022/03/30 00:43:10;;;;;;;29.00;13.30;;;;;;;5.52;80.65;98470.59;25036;1313;3026268;-64
2022/03/30 00:45:41;;;;;;;34.60;13.20;;;;;;;5.47;80.74;98463.04;25074;1313;3026583;-64
2022/03/30 00:48:10;;;;;;;25.50;11.70;;;;;;;5.32;80.81;98449.10;25074;1313;3026362;-62
2022/03/30 00:50:40;;;;;;;21.80;11.60;;;;;;;5.61;80.04;98450.08;25061;1313;3026099;-62
2022/03/30 00:53:09;;;;;;;32.10;12.80;;;;;;;5.67;79.15;98453.77;25081;1313;3026345;-63
2022/03/30 00:55:41;;;;;;;35.70;13.30;;;;;;;5.59;79.54;98456.65;25094;1314;3054296;-61
2022/03/30 00:58:10;;;;;;;26.90;13.00;;;;;;;5.48;79.48;98454.30;25056;1315;3026724;-63
2022/03/30 01:00:39;;;;;;;25.60;13.10;;;;;;;5.23;80.53;98459.64;25093;1313;3054785;-61
2022/03/30 01:03:08;;;;;;;29.60;13.30;;;;;;;5.22;81.20;98456.61;25055;1314;3026224;-62
2022/03/30 01:05:37;;;;;;;24.60;13.10;;;;;;;5.36;81.77;98457.17;25116;1313;3049120;-64
2022/03/30 01:08:08;;;;;;;31.00;15.40;;;;;;;5.59;81.82;98438.59;25026;1313;3026929;-63
2022/03/30 01:10:38;;;;;;;40.80;14.80;;;;;;;5.38;82.65;98446.85;25045;1313;3027488;-63
2022/03/30 01:13:12;;;;;;;35.50;18.00;;;;;;;5.07;84.07;98442.61;25079;1315;3071184;-61
2022/03/30 01:15:45;;;;;;;33.60;15.10;;;;;;;5.07;84.96;98434.51;25101;1315;3026454;-59
2022/03/30 01:18:14;;;;;;;23.90;13.10;;;;;;;5.32;84.96;98432.58;25063;1315;3027591;-59
2022/03/30 01:20:50;;;;;;;35.20;16.00;;;;;;;5.58;84.05;98418.13;25104;1315;3026495;-61
2022/03/30 01:23:19;;;;;;;37.30;17.00;;;;;;;5.46;83.92;98419.69;25114;1315;3048700;-61
2022/03/30 01:25:50;;;;;;;41.20;18.70;;;;;;;5.38;84.42;98423.59;25109;1315;3029602;-62
2022/03/30 01:28:19;;;;;;;50.30;16.50;;;;;;;5.40;84.62;98430.25;25119;1315;3026591;-63
2022/03/30 01:33:37;;;;;;;31.60;16.40;;;;;;;5.66;84.55;98426.71;25106;1313;3055092;-63
2022/03/30 01:36:06;;;;;;;40.50;16.50;;;;;;;5.97;83.26;98431.38;25035;1313;3026940;-61
2022/03/30 01:38:35;;;;;;;35.40;17.00;;;;;;;5.88;83.03;98433.80;25084;1316;3050351;-64
2022/03/30 01:41:04;;;;;;;40.50;18.00;;;;;;;5.81;83.47;98438.53;25033;1315;3026660;-61
2022/03/30 01:43:33;;;;;;;34.20;17.70;;;;;;;5.49;84.62;98444.68;25127;1315;3026327;-61
2022/03/30 01:46:03;;;;;;;33.80;16.70;;;;;;;6.07;83.73;98438.81;25027;1315;3051736;-62
2022/03/30 01:48:32;;;;;;;36.50;17.80;;;;;;;6.17;82.33;98450.89;25053;1313;3026806;-63
2022/03/30 01:51:02;;;;;;;43.60;19.50;;;;;;;5.99;82.63;98434.02;25075;1315;3026068;-62
2022/03/30 01:53:31;;;;;;;38.70;17.90;;;;;;;5.95;82.78;98415.88;25087;1315;3026950;-61
2022/03/30 01:56:01;;;;;;;42.40;19.70;;;;;;;5.77;83.47;98421.05;25120;1313;3055085;-61
2022/03/30 01:58:31;;;;;;;29.60;15.70;;;;;;;5.81;83.63;98450.22;25075;1315;3026397;-64
2022/03/30 02:01:03;;;;;;;34.60;17.20;;;;;;;6.24;82.36;98433.63;25036;1313;3026955;-63
2022/03/30 02:03:32;;;;;;;35.50;16.70;;;;;;;6.20;81.82;98405.70;25057;1313;3027504;-61
2022/03/30 02:06:02;;;;;;;40.80;18.90;;;;;;;6.16;81.81;98408.05;25129;1313;3026066;-61
2022/03/30 02:08:31;;;;;;;34.00;18.50;;;;;;;6.05;82.41;98421.55;25124;1312;3026941;-60
2022/03/30 02:11:01;;;;;;;34.10;17.20;;;;;;;6.01;82.25;98425.41;25082;1313;3026093;-62
2022/03/30 02:13:30;;;;;;;35.50;17.50;;;;;;;5.82;82.71;98432.23;25054;1313;3026891;-61
2022/03/30 02:16:01;;;;;;;36.40;18.10;;;;;;;6.20;82.20;98438.59;25072;1315;3053776;-63
2022/03/30 02:18:32;;;;;;;34.20;17.70;;;;;;;6.16;81.76;98435.83;25036;1315;3026503;-61
2022/03/30 02:21:01;;;;;;;43.60;18.70;;;;;;;6.19;81.76;98438.48;25116;1313;3026441;-64
2022/03/30 02:23:31;;;;;;;34.10;18.90;;;;;;;6.31;80.86;98444.88;25042;1313;3053911;-64
2022/03/30 02:26:00;;;;;;;35.40;18.90;;;;;;;6.14;80.96;98439.60;25030;1315;3026746;-61
2022/03/30 02:28:29;;;;;;;37.00;17.50;;;;;;;5.96;81.78;98434.55;25093;1313;3026604;-63
2022/03/30 02:30:58;;;;;;;36.00;18.70;;;;;;;6.58;80.33;98446.37;25068;1313;3051525;-62
2022/03/30 02:33:27;;;;;;;39.50;20.00;;;;;;;6.27;80.49;98442.84;25093;1315;3026435;-62
2022/03/30 02:35:57;;;;;;;38.90;17.80;;;;;;;6.27;81.11;98444.79;25075;1313;3028191;-60
2022/03/30 02:38:26;;;;;;;41.70;19.00;;;;;;;5.92;81.91;98449.75;25041;1313;3026111;-62
2022/03/30 02:40:56;;;;;;;44.60;21.50;;;;;;;6.07;81.35;98454.77;25089;1313;3026111;-63
2022/03/30 02:43:26;;;;;;;31.70;16.60;;;;;;;5.64;83.47;98463.11;25111;1313;3048388;-63
2022/03/30 02:45:55;;;;;;;39.70;18.70;;;;;;;6.16;82.03;98450.63;25094;1316;3026908;-63
2022/03/30 02:48:28;;;;;;;35.60;19.00;;;;;;;6.27;81.29;98453.31;25108;1313;3068853;-63
2022/03/30 02:50:59;;;;;;;39.30;19.90;;;;;;;6.18;80.83;98458.33;25113;1313;3026580;-65
2022/03/30 02:53:28;;;;;;;49.80;20.70;;;;;;;5.92;82.33;98454.94;25094;1315;3026602;-62
2022/03/30 02:55:58;;;;;;;38.60;19.40;;;;;;;5.73;83.01;98463.32;25093;1315;3026399;-62
2022/03/30 02:58:27;;;;;;;42.80;21.20;;;;;;;5.77;83.24;98461.02;25078;1315;3027315;-63
2022/03/30 03:00:57;;;;;;;42.70;21.20;;;;;;;6.27;81.89;98454.69;25066;1312;3026536;-61
2022/03/30 03:03:26;;;;;;;36.80;18.90;;;;;;;6.74;79.81;98458.83;25041;1313;3026412;-64
2022/03/30 03:05:55;;;;;;;33.40;17.70;;;;;;;6.72;78.90;98462.96;25096;1313;3026907;-63
2022/03/30 03:08:44;;;;;;;44.20;22.80;;;;;;;6.35;80.05;98471.09;24985;1316;3071347;-62
2022/03/30 03:11:13;;;;;;;52.90;24.00;;;;;;;5.87;82.18;98472.09;25103;1313;3026458;-63
2022/03/30 03:13:42;;;;;;;42.60;18.40;;;;;;;5.75;83.22;98465.79;25036;1313;3053809;-63
2022/03/30 03:16:13;;;;;;;39.20;19.20;;;;;;;6.29;81.73;98455.41;25100;1315;3026859;-60
2022/03/30 03:18:42;;;;;;;42.10;22.00;;;;;;;6.50;80.12;98436.60;25083;1313;3053972;-63
2022/03/30 03:21:11;;;;;;;42.80;22.00;;;;;;;6.35;80.26;98432.66;25172;1312;3026326;-62
2022/03/30 03:23:41;;;;;;;55.80;23.90;;;;;;;6.11;81.17;98423.12;25104;1315;3051466;-60
2022/03/30 03:26:10;;;;;;;46.60;22.30;;;;;;;5.88;82.15;98417.14;25187;1312;3029068;-62
2022/03/30 03:28:40;;;;;;;39.70;21.20;;;;;;;5.65;83.17;98416.14;25189;1312;3026492;-64
2022/03/30 03:31:09;;;;;;;45.20;21.50;;;;;;;5.92;82.83;98416.00;25115;1312;3026541;-63
2022/03/30 03:33:38;;;;;;;41.80;22.00;;;;;;;6.33;81.23;98408.77;25097;1312;3054240;-63
2022/03/30 03:36:07;;;;;;;44.30;22.60;;;;;;;6.22;80.97;98404.34;25086;1312;3027827;-61
2022/03/30 03:38:36;;;;;;;55.20;22.10;;;;;;;5.94;81.82;98409.14;25087;1312;3051615;-62
2022/03/30 03:41:06;;;;;;;49.50;21.90;;;;;;;5.59;83.23;98414.63;25110;1313;3026066;-60
2022/03/30 03:43:37;;;;;;;37.60;20.40;;;;;;;5.54;83.86;98412.78;25081;1313;3056314;-63
2022/03/30 03:46:06;;;;;;;42.40;22.20;;;;;;;6.02;82.68;98418.42;25082;1312;3026790;-63
2022/03/30 03:48:35;;;;;;;53.30;24.00;;;;;;;6.24;81.01;98409.81;25104;1312;3026362;-61
2022/03/30 03:51:04;;;;;;;39.80;23.30;;;;;;;5.86;82.29;98410.61;25030;1315;3026400;-61
2022/03/30 03:53:35;;;;;;;50.60;23.20;;;;;;;5.94;82.32;98411.00;25058;1312;3051728;-62
2022/03/30 03:56:04;;;;;;;54.50;25.30;;;;;;;5.71;82.98;98409.41;25075;1315;3026784;-63
2022/03/30 03:58:35;;;;;;;41.40;21.20;;;;;;;5.53;83.74;98409.90;25032;1315;3027526;-63
2022/03/30 04:01:04;;;;;;;41.60;22.80;;;;;;;5.92;83.03;98413.72;25088;1312;3026127;-64
2022/03/30 04:03:33;;;;;;;51.40;23.70;;;;;;;6.12;81.86;98403.27;25092;1315;3052775;-63
2022/03/30 04:06:03;;;;;;;44.60;22.40;;;;;;;6.21;81.28;98409.14;25079;1315;3030289;-64
2022/03/30 04:08:32;;;;;;;43.70;24.00;;;;;;;6.14;81.44;98410.06;25048;1312;3051913;-64
2022/03/30 04:11:01;;;;;;;53.30;25.50;;;;;;;5.71;82.67;98422.09;25119;1316;3026754;-62
2022/03/30 04:13:32;;;;;;;45.70;24.20;;;;;;;5.49;83.87;98429.71;25082;1312;3058444;-62
2022/03/30 04:16:01;;;;;;;41.00;21.60;;;;;;;5.96;83.27;98420.98;25093;1315;3026913;-64
2022/03/30 04:18:30;;;;;;;44.20;23.60;;;;;;;6.02;81.93;98421.88;25045;1314;3026780;-62
2022/03/30 04:20:59;;;;;;;47.20;24.70;;;;;;;5.97;82.20;98424.28;25103;1313;3057151;-62
2022/03/30 04:23:28;;;;;;;58.80;28.20;;;;;;;5.94;82.12;98427.73;25046;1313;3026912;-62
2022/03/30 04:25:57;;;;;;;56.50;24.80;;;;;;;5.66;83.34;98428.65;25109;1312;3054311;-61
2022/03/30 04:28:27;;;;;;;44.60;22.00;;;;;;;5.79;83.49;98419.19;25073;1313;3025968;-62
2022/03/30 04:30:56;;;;;;;54.70;26.00;;;;;;;6.21;82.09;98419.77;25084;1315;3054243;-62
2022/03/30 04:33:25;;;;;;;51.00;24.00;;;;;;;6.67;80.08;98414.70;25132;1316;3027158;-63
2022/03/30 04:35:54;;;;;;;47.80;25.70;;;;;;;6.79;79.24;98414.84;25041;1313;3028966;-62
2022/03/30 04:38:24;;;;;;;59.30;28.50;;;;;;;6.67;78.94;98419.07;25038;1315;3056555;-62
2022/03/30 04:40:53;;;;;;;54.40;27.00;;;;;;;6.34;79.93;98420.50;25108;1313;3026939;-61
2022/03/30 04:43:22;;;;;;;68.30;30.50;;;;;;;5.96;81.20;98432.46;25048;1315;3052140;-64
2022/03/30 04:45:52;;;;;;;55.90;25.20;;;;;;;5.94;81.90;98428.58;25076;1316;3026450;-63
2022/03/30 04:48:22;;;;;;;61.00;28.10;;;;;;;6.64;80.27;98420.96;25093;1316;3026970;-61
2022/03/30 04:50:53;;;;;;;48.70;25.50;;;;;;;7.38;77.33;98424.58;25117;1316;3026512;-62
2022/03/30 04:53:22;;;;;;;63.80;30.10;;;;;;;7.16;76.57;98425.79;25083;1314;3026539;-62
2022/03/30 04:55:51;;;;;;;62.30;30.20;;;;;;;6.82;77.61;98430.00;25098;1313;3053446;-62
2022/03/30 04:58:21;;;;;;;62.70;32.10;;;;;;;6.85;78.11;98429.95;25078;1313;3027589;-62
2022/03/30 05:00:50;;;;;;;65.30;32.60;;;;;;;6.56;78.71;98434.17;25099;1315;3029848;-64
2022/03/30 05:03:20;;;;;;;63.90;33.10;;;;;;;6.22;80.08;98434.09;25098;1313;3052013;-62
2022/03/30 05:05:49;;;;;;;60.70;28.40;;;;;;;6.08;81.28;98437.17;25093;1316;3026446;-63
2022/03/30 05:08:18;;;;;;;53.20;27.40;;;;;;;6.52;79.94;98439.83;25064;1313;3026294;-60
2022/03/30 05:10:57;;;;;;;59.10;29.80;;;;;;;6.93;78.14;98443.42;25124;1315;3055204;-62
2022/03/30 05:13:26;;;;;;;60.70;31.20;;;;;;;6.89;78.00;98449.02;25054;1312;3026461;-62
2022/03/30 05:15:56;;;;;;;80.00;34.70;;;;;;;6.88;78.05;98456.09;25101;1315;3054968;-62
2022/03/30 05:18:26;;;;;;;62.70;30.70;;;;;;;6.88;78.08;98465.27;25108;1316;3026619;-63
2022/03/30 05:20:55;;;;;;;67.80;32.30;;;;;;;6.74;78.34;98471.90;25096;1315;3027299;-62
2022/03/30 05:23:24;;;;;;;60.20;28.80;;;;;;;6.47;78.95;98481.29;25080;1313;3026410;-61
2022/03/30 05:25:54;;;;;;;55.10;27.60;;;;;;;6.23;79.83;98485.87;25057;1314;3026943;-62
2022/03/30 05:28:23;;;;;;;57.80;29.20;;;;;;;6.71;78.81;98474.00;25124;1313;3026379;-61
2022/03/30 05:30:52;;;;;;;57.50;29.50;;;;;;;6.93;77.52;98475.43;25046;1315;3048761;-62
2022/03/30 05:33:21;;;;;;;58.00;30.30;;;;;;;7.19;76.89;98468.07;25108;1315;3026527;-62
2022/03/30 05:35:51;;;;;;;67.70;33.70;;;;;;;7.01;76.83;98466.77;25054;1315;3057593;-62
2022/03/30 05:38:20;;;;;;;72.60;34.00;;;;;;;6.75;77.98;98465.75;25077;1315;3026410;-63
2022/03/30 05:40:50;;;;;;;71.10;34.80;;;;;;;6.66;78.36;98462.61;25096;1315;3055457;-62
2022/03/30 05:43:21;;;;;;;72.00;33.70;;;;;;;6.71;78.08;98453.12;25139;1315;3026984;-61
2022/03/30 05:45:51;;;;;;;65.10;28.60;;;;;;;6.64;78.60;98452.67;25031;1315;3026417;-63
2022/03/30 05:48:20;;;;;;;62.40;31.00;;;;;;;7.21;76.54;98447.59;25148;1316;3026866;-61
2022/03/30 05:50:52;;;;;;;59.60;30.90;;;;;;;7.64;74.56;98449.57;25142;1313;3058753;-62
2022/03/30 05:53:21;;;;;;;73.00;33.60;;;;;;;7.63;74.44;98452.25;25066;1315;3029196;-64
2022/03/30 05:55:51;;;;;;;68.10;33.30;;;;;;;7.49;74.87;98456.98;25097;1312;3026193;-62
2022/03/30 05:58:20;;;;;;;94.60;36.40;;;;;;;7.39;74.80;98457.41;25084;1316;3026368;-60
2022/03/30 06:00:53;;;;;;;76.90;36.20;;;;;;;7.13;76.09;98463.40;25098;1313;3050910;-62
2022/03/30 06:03:22;;;;;;;73.70;35.20;;;;;;;7.03;76.60;98457.27;25104;1313;3028234;-64
2022/03/30 06:05:53;;;;;;;75.40;36.80;;;;;;;7.00;76.69;98459.73;25089;1315;3026751;-62
2022/03/30 06:08:21;;;;;;;62.60;30.80;;;;;;;6.88;77.32;98464.41;25089;1315;3026924;-64
2022/03/30 06:10:50;;;;;;;70.10;32.50;;;;;;;7.25;76.35;98463.02;25060;1315;3055269;-63
2022/03/30 06:13:19;;;;;;;67.90;31.80;;;;;;;7.54;74.88;98454.20;25134;1315;3026474;-61
2022/03/30 06:15:49;;;;;;;71.90;33.70;;;;;;;7.48;74.57;98457.39;25133;1315;3048790;-62
2022/03/30 06:18:18;;;;;;;70.10;30.50;;;;;;;7.30;74.81;98464.95;25061;1316;3026407;-62
2022/03/30 06:20:48;;;;;;;69.60;33.90;;;;;;;7.36;75.02;98458.33;25129;1315;3056080;-63
2022/03/30 06:23:17;;;;;;;80.70;37.40;;;;;;;7.38;75.07;98453.00;25055;1315;3026528;-62
2022/03/30 06:25:46;;;;;;;74.90;34.70;;;;;;;7.26;75.34;98456.30;25068;1313;3051862;-63
2022/03/30 06:28:16;;;;;;;78.30;36.50;;;;;;;7.10;75.94;98458.91;25076;1316;3026874;-61
2022/03/30 06:30:46;;;;;;;61.60;29.60;;;;;;;7.14;76.17;98452.88;25040;1313;3026499;-63
2022/03/30 06:33:16;;;;;;;54.10;28.50;;;;;;;7.70;74.49;98451.65;25087;1316;3026624;-65
2022/03/30 06:35:46;;;;;;;57.00;31.10;;;;;;;8.07;72.90;98451.83;25120;1315;3027399;-62
2022/03/30 06:38:16;;;;;;;70.70;33.30;;;;;;;8.12;72.76;98447.34;25055;1314;3027101;-63
2022/03/30 06:40:47;;;;;;;70.50;31.20;;;;;;;7.86;73.76;98447.45;25144;1315;3026731;-63
2022/03/30 06:43:16;;;;;;;65.20;32.30;;;;;;;7.67;74.62;98449.16;25092;1314;3050663;-60
2022/03/30 06:45:46;;;;;;;77.10;33.10;;;;;;;7.43;75.64;98449.16;25104;1314;3026431;-62
2022/03/30 06:48:15;;;;;;;72.50;31.90;;;;;;;7.35;76.50;98441.35;25110;1315;3053543;-64
2022/03/30 06:50:45;;;;;;;62.80;29.50;;;;;;;7.37;76.61;98445.52;25049;1315;3026250;-61
2022/03/30 06:53:14;;;;;;;57.60;28.60;;;;;;;7.88;75.42;98450.61;24494;1316;3051370;-64
2022/03/30 06:55:44;;;;;;;65.50;31.60;;;;;;;8.17;73.91;98452.03;25086;1313;3055307;-63
2022/03/30 06:58:13;;;;;;;62.70;31.70;;;;;;;8.29;73.61;98449.27;25135;1313;3026572;-64
2022/03/30 07:00:49;;;;;;;76.10;33.90;;;;;;;8.23;73.69;98456.72;25023;1315;3051078;-63
2022/03/30 07:03:20;;;;;;;76.20;35.80;;;;;;;7.98;74.66;98457.48;25099;1315;3026547;-62
2022/03/30 07:05:49;;;;;;;73.40;31.90;;;;;;;8.06;74.76;98460.95;25159;1315;3027113;-64
2022/03/30 07:11:26;;;;;;;63.40;28.70;;;;;;;8.43;73.83;98441.77;25082;1313;3048107;-63
2022/03/30 07:13:58;;;;;;;58.80;27.90;;;;;;;9.12;71.47;98444.00;25061;1316;3026852;-60
2022/03/30 07:16:38;;;;;;;66.00;30.30;;;;;;;9.09;70.57;98445.61;25084;1316;3054872;-64
2022/03/30 07:19:07;;;;;;;63.10;31.10;;;;;;;9.06;70.63;98456.81;25051;1313;3027086;-63
2022/03/30 07:21:36;;;;;;;71.20;31.10;;;;;;;9.01;71.15;98455.93;25102;1313;3026883;-61
2022/03/30 07:24:07;;;;;;;66.90;30.60;;;;;;;9.04;71.14;98449.99;25061;1315;3054616;-62
2022/03/30 07:26:38;;;;;;;63.20;30.20;;;;;;;9.02;70.95;98459.21;25080;1315;3027408;-60
2022/03/30 07:29:07;;;;;;;75.40;31.00;;;;;;;9.01;70.92;98464.48;25109;1315;3026784;-64
2022/03/30 07:31:36;;;;;;;67.60;32.40;;;;;;;9.15;70.60;98464.02;25066;1315;3054691;-63
2022/03/30 07:34:05;;;;;;;69.10;31.80;;;;;;;9.27;70.40;98457.30;25104;1315;3026672;-64
2022/03/30 07:36:34;;;;;;;60.60;25.20;;;;;;;9.45;69.92;98454.21;25075;1315;3052137;-63
2022/03/30 07:39:03;;;;;;;68.10;26.30;;;;;;;9.96;68.08;98451.40;25054;1313;3028536;-65
2022/03/30 07:41:33;;;;;;;61.40;27.60;;;;;;;10.47;66.00;98449.00;25049;1314;3052004;-63
2022/03/30 07:44:02;;;;;;;61.60;27.60;;;;;;;10.56;65.85;98451.50;25126;1312;3026556;-64
2022/03/30 07:46:32;;;;;;;67.70;28.10;;;;;;;10.61;65.76;98446.59;25110;1315;3070750;-64
2022/03/30 07:49:01;;;;;;;68.10;27.90;;;;;;;10.45;65.88;98445.84;25133;1315;3027534;-66
2022/03/30 07:51:31;;;;;;;72.50;29.50;;;;;;;10.37;66.13;98456.22;25140;1315;3026113;-62
2022/03/30 07:54:00;;;;;;;66.20;28.20;;;;;;;10.34;66.29;98449.98;25087;1315;3028304;-64
2022/03/30 07:56:31;;;;;;;77.60;31.30;;;;;;;10.44;66.13;98445.55;25107;1312;3047279;-64
2022/03/30 07:59:01;;;;;;;60.50;26.40;;;;;;;10.54;65.75;98443.58;25082;1315;3027341;-64
2022/03/30 08:01:30;;;;;;;62.20;27.50;;;;;;;10.22;66.30;98450.90;25057;1315;3026248;-64
2022/03/30 08:03:59;;;;;;;62.90;28.40;;;;;;;10.28;66.38;98446.23;25107;1312;3026528;-63
2022/03/30 08:06:29;;;;;;;65.10;28.80;;;;;;;10.45;66.23;98440.09;25067;1312;3051614;-63
2022/03/30 08:08:58;;;;;;;55.20;26.70;;;;;;;10.36;65.81;98443.19;25110;1312;3026287;-62
2022/03/30 08:11:28;;;;;;;68.90;27.80;;;;;;;10.30;66.00;98439.23;25112;1312;3051737;-64
2022/03/30 08:13:58;;;;;;;59.30;29.80;;;;;;;10.59;65.22;98431.29;25076;1312;3026971;-62
2022/03/30 08:16:33;;;;;;;67.40;28.60;;;;;;;10.76;64.83;98433.14;25086;1312;3026623;-61
2022/03/30 08:19:02;;;;;;;53.70;26.30;;;;;;;10.82;64.33;98441.13;25074;1312;3026592;-60
2022/03/30 08:24:28;;;;;;;67.90;27.70;;;;;;;11.02;63.92;98432.71;25078;1312;3055938;-61
2022/03/30 08:26:57;;;;;;;67.90;27.30;;;;;;;11.18;63.01;98433.40;25150;1315;3026624;-62
2022/03/30 08:29:27;;;;;;;56.40;25.40;;;;;;;11.14;62.92;98433.34;25065;1312;3051118;-65
2022/03/30 08:31:56;;;;;;;56.40;25.80;;;;;;;11.29;62.59;98433.36;25045;1312;3026432;-62
2022/03/30 08:34:25;;;;;;;57.90;26.20;;;;;;;11.49;61.97;98426.66;25096;1312;3026735;-59
2022/03/30 08:36:54;;;;;;;56.80;25.30;;;;;;;11.55;61.06;98428.33;25030;1313;3051134;-63
2022/03/30 08:39:25;;;;;;;60.90;26.50;;;;;;;11.50;61.18;98427.11;25154;1312;3026725;-64
2022/03/30 08:41:54;;;;;;;62.20;25.90;;;;;;;11.62;60.82;98427.21;25056;1312;3026741;-62
2022/03/30 08:44:23;;;;;;;60.30;25.80;;;;;;;11.74;60.42;98421.13;25084;1313;3049670;-64
2022/03/30 08:46:53;;;;;;;51.30;23.10;;;;;;;11.91;59.44;98417.81;25065;1313;3026475;-64
2022/03/30 08:49:23;;;;;;;49.80;23.40;;;;;;;12.10;59.00;98413.11;25095;1313;3026851;-60
2022/03/30 08:51:52;;;;;;;47.40;22.20;;;;;;;12.30;58.38;98405.64;25043;1315;3025963;-63
2022/03/30 08:54:21;;;;;;;48.70;22.30;;;;;;;12.45;57.20;98404.92;25096;1313;3054055;-64
2022/03/30 08:56:50;;;;;;;54.60;21.10;;;;;;;12.44;56.74;98411.15;25034;1313;3026290;-64
2022/03/30 08:59:21;;;;;;;49.30;20.60;;;;;;;12.55;56.25;98400.74;25132;1312;3051831;-62
2022/03/30 09:01:55;;;;;;;47.30;20.20;;;;;;;12.67;55.91;98402.14;25116;1312;3027407;-63
2022/03/30 09:04:25;;;;;;;51.30;21.50;;;;;;;12.89;55.59;98397.25;25053;1313;3026529;-64
2022/03/30 09:06:57;;;;;;;56.10;20.90;;;;;;;13.07;55.16;98399.20;25089;1313;3028765;-63
2022/03/30 09:09:33;;;;;;;49.90;20.80;;;;;;;13.21;54.09;98407.51;25097;1316;3027556;-65
2022/03/30 09:12:07;;;;;;;53.90;20.90;;;;;;;13.37;53.58;98412.48;25089;1313;3052037;-64
2022/03/30 09:14:39;;;;;;;48.30;20.40;;;;;;;13.56;52.91;98414.31;25062;1313;3051993;-62
2022/03/30 09:17:08;;;;;;;53.30;20.30;;;;;;;13.75;52.12;98408.56;25055;1313;3027233;-59
2022/03/30 09:19:39;;;;;;;46.70;19.80;;;;;;;13.92;51.61;98396.24;25168;1313;3028106;-64
2022/03/30 09:22:10;;;;;;;49.10;20.20;;;;;;;14.09;50.79;98406.12;25126;1313;3026569;-64
2022/03/30 09:24:41;;;;;;;49.80;17.40;;;;;;;14.25;50.32;98399.77;25136;1313;3026402;-64
2022/03/30 09:27:12;;;;;;;44.70;19.30;;;;;;;14.26;48.98;98406.42;25051;1313;3026217;-64
2022/03/30 09:29:42;;;;;;;45.50;19.60;;;;;;;14.24;49.00;98396.73;25101;1312;3026865;-64
2022/03/30 09:32:12;;;;;;;45.30;20.10;;;;;;;14.22;49.93;98391.95;25119;1313;3026683;-63
2022/03/30 09:34:49;;;;;;;46.80;20.70;;;;;;;14.35;49.50;98386.16;25026;1316;3026582;-65
2022/03/30 09:37:19;;;;;;;37.60;19.60;;;;;;;14.38;49.07;98385.17;25075;1316;3058640;-64
2022/03/30 09:39:49;;;;;;;49.10;20.00;;;;;;;14.47;49.30;98382.59;25125;1313;3026485;-63
2022/03/30 09:42:19;;;;;;;51.00;20.00;;;;;;;14.59;48.97;98380.58;25049;1315;3054081;-65
2022/03/30 09:44:49;;;;;;;52.80;21.40;;;;;;;14.70;48.18;98383.78;25107;1313;3026709;-64
2022/03/30 09:47:23;;;;;;;52.40;21.20;;;;;;;14.92;47.97;98390.86;25126;1312;3051294;-65
2022/03/30 09:49:53;;;;;;;45.40;19.50;;;;;;;15.09;47.75;98379.71;25090;1315;3026539;-63
2022/03/30 09:52:23;;;;;;;48.10;19.60;;;;;;;15.14;47.41;98384.68;25057;1313;3027505;-64
2022/03/30 09:54:54;;;;;;;49.10;19.90;;;;;;;15.13;46.98;98379.88;25066;1313;3027247;-62
2022/03/30 09:57:28;;;;;;;52.50;20.30;;;;;;;15.32;46.83;98372.04;25136;1315;3026247;-64
2022/03/30 10:00:00;;;;;;;46.20;19.10;;;;;;;15.27;46.57;98380.06;25111;1315;3054787;-64
2022/03/30 10:02:31;;;;;;;40.40;19.00;;;;;;;15.44;46.18;98378.34;25119;1313;3026434;-64
2022/03/30 10:05:01;;;;;;;46.20;18.60;;;;;;;15.65;45.82;98370.81;25085;1313;3027175;-63
2022/03/30 10:07:31;;;;;;;33.50;17.40;;;;;;;15.80;45.23;98383.23;25082;1313;3026750;-63
2022/03/30 10:10:00;;;;;;;44.10;18.70;;;;;;;15.83;44.68;98386.52;25047;1313;3028276;-64
2022/03/30 10:12:29;;;;;;;57.40;18.60;;;;;;;15.71;44.62;98380.27;25118;1315;3027350;-63
2022/03/30 10:15:00;;;;;;;37.80;18.10;;;;;;;15.81;44.04;98377.14;25050;1315;3028245;-63
2022/03/30 10:17:29;;;;;;;42.90;18.90;;;;;;;15.92;43.61;98371.77;25091;1313;3026277;-64
2022/03/30 10:20:01;;;;;;;40.60;19.20;;;;;;;16.02;43.50;98366.91;25067;1315;3058617;-63
2022/03/30 10:22:37;;;;;;;34.00;16.30;;;;;;;16.12;43.65;98366.66;25119;1313;3026534;-62
2022/03/30 10:25:39;;;;;;;45.50;19.40;;;;;;;16.30;43.14;98361.79;25043;1314;3055449;-63
2022/03/30 10:28:17;;;;;;;41.80;18.80;;;;;;;16.32;42.60;98363.81;25054;1315;3051347;-63
2022/03/30 10:30:50;;;;;;;42.70;18.30;;;;;;;16.43;42.39;98353.65;25103;1314;3073415;-61
2022/03/30 10:33:31;;;;;;;43.40;17.60;;;;;;;16.42;42.22;98352.48;25104;1313;3027035;-61
2022/03/30 10:36:20;;;;;;;39.20;17.50;;;;;;;16.61;41.32;98345.57;25047;1315;3053845;-62
2022/03/30 10:39:28;;;;;;;38.80;17.60;;;;;;;16.70;40.61;98342.05;25082;1313;3055840;-62
2022/03/30 10:42:03;;;;;;;43.10;17.90;;;;;;;16.78;40.61;98337.82;24977;1319;3058906;-64
2022/03/30 10:44:47;;;;;;;49.10;17.90;;;;;;;16.95;40.07;98334.17;25013;1313;3049605;-63
2022/03/30 10:47:20;;;;;;;43.70;17.20;;;;;;;17.18;39.24;98331.59;25048;1313;3053304;-62
2022/03/30 10:49:54;;;;;;;46.20;18.50;;;;;;;17.10;38.82;98332.03;25086;1313;3055076;-64
2022/03/30 10:52:42;;;;;;;40.10;17.40;;;;;;;17.06;37.63;98333.31;25027;1313;3070846;-65
2022/03/30 10:55:11;;;;;;;37.80;18.60;;;;;;;17.16;37.38;98333.67;25097;1313;3052058;-64
2022/03/30 10:57:43;;;;;;;48.40;17.50;;;;;;;17.27;37.59;98325.48;25036;1313;3027618;-65
2022/03/30 11:00:19;;;;;;;44.60;17.90;;;;;;;17.34;36.95;98331.30;25072;1313;3070031;-63
2022/03/30 11:02:49;;;;;;;43.50;17.00;;;;;;;17.59;36.32;98318.89;25111;1313;3053216;-63
2022/03/30 11:05:28;;;;;;;47.60;16.60;;;;;;;17.63;35.87;98309.59;25102;1313;3026460;-64
2022/03/30 11:07:57;;;;;;;35.40;14.60;;;;;;;17.83;36.07;98301.86;25072;1313;3051713;-66
2022/03/30 11:10:30;;;;;;;35.80;14.60;;;;;;;18.12;36.20;98298.25;25124;1315;3026335;-64
2022/03/30 11:13:06;;;;;;;40.40;15.90;;;;;;;18.19;35.23;98295.38;25190;1313;3052979;-65
2022/03/30 11:16:00;;;;;;;30.90;15.50;;;;;;;18.19;35.61;98298.73;25142;1313;3054735;-66
2022/03/30 11:18:30;;;;;;;39.20;15.40;;;;;;;17.96;35.30;98300.02;25101;1315;3059070;-65
2022/03/30 11:21:20;;;;;;;29.10;14.10;;;;;;;18.12;34.99;98284.62;25162;1313;3026938;-66
2022/03/30 11:24:03;;;;;;;31.30;15.10;;;;;;;18.27;34.43;98284.52;25093;1315;3053547;-64
2022/03/30 11:26:50;;;;;;;42.50;14.30;;;;;;;18.38;34.78;98282.05;25104;1315;3054478;-64
2022/03/30 11:29:41;;;;;;;44.60;15.80;;;;;;;18.49;34.40;98279.41;25102;1316;3070251;-64
2022/03/30 11:32:22;;;;;;;33.20;14.30;;;;;;;18.70;34.51;98265.22;25032;1315;3051927;-64